createdAt,value
2019-03-03T00:00:22.037Z,87.40
2019-03-03T00:02:50.560Z,87.80
2019-03-03T00:05:18.991Z,87.10
2019-03-03T00:07:47.457Z,88.10
2019-03-03T00:10:16.040Z,88.40
2019-03-03T00:12:44.893Z,88.70
2019-03-03T00:15:13.480Z,88.70
2019-03-03T00:17:41.911Z,88.20
2019-03-03T00:20:13.027Z,87.60
2019-03-03T00:22:41.468Z,88.20
2019-03-03T00:25:11.660Z,88.40
2019-03-03T00:27:40.189Z,88.30
2019-03-03T00:30:13.987Z,88.40
2019-03-03T00:32:42.821Z,88.40
2019-03-03T00:35:11.483Z,89.00
2019-03-03T00:37:56.308Z,88.10
2019-03-03T00:40:35.610Z,88.70
2019-03-03T00:43:08.721Z,87.90
2019-03-03T00:45:55.365Z,87.90
2019-03-03T00:48:31.602Z,88.10
2019-03-03T00:51:10.744Z,88.00
2019-03-03T00:53:49.570Z,88.60
2019-03-03T00:56:19.730Z,88.70
2019-03-03T00:58:52.338Z,88.80
2019-03-03T01:01:31.598Z,88.80
2019-03-03T01:04:04.217Z,89.20
2019-03-03T01:06:40.477Z,88.90
2019-03-03T01:09:21.769Z,89.20
2019-03-03T01:11:52.282Z,88.90
2019-03-03T01:14:22.361Z,89.20
2019-03-03T01:17:07.666Z,88.90
2019-03-03T01:19:40.478Z,88.80
2019-03-03T01:22:10.620Z,89.00
2019-03-03T01:24:50.150Z,88.90
2019-03-03T01:27:18.589Z,88.80
2019-03-03T01:29:47.053Z,88.90
2019-03-03T01:32:15.762Z,88.90
2019-03-03T01:34:44.197Z,89.00
2019-03-03T01:37:12.634Z,88.60
2019-03-03T01:39:41.061Z,88.70
2019-03-03T01:42:09.657Z,88.80
2019-03-03T01:44:39.248Z,89.00
2019-03-03T01:47:07.701Z,89.10
2019-03-03T01:49:36.129Z,89.30
2019-03-03T01:52:04.709Z,89.30
2019-03-03T01:54:33.199Z,89.50
2019-03-03T01:57:01.661Z,89.30
2019-03-03T01:59:30.097Z,89.20
2019-03-03T02:01:58.541Z,89.50
2019-03-03T02:04:26.976Z,89.90
2019-03-03T02:06:55.416Z,89.80
2019-03-03T02:09:23.886Z,90.00
2019-03-03T02:11:52.424Z,90.00
2019-03-03T02:14:20.879Z,90.00
2019-03-03T02:16:49.389Z,90.00
2019-03-03T02:19:17.826Z,90.10
2019-03-03T02:21:46.274Z,89.90
2019-03-03T02:24:14.772Z,89.70
2019-03-03T02:26:43.245Z,89.70
2019-03-03T02:29:11.708Z,89.90
2019-03-03T02:31:40.129Z,89.90
2019-03-03T02:34:08.590Z,89.20
2019-03-03T02:36:37.008Z,88.50
2019-03-03T02:39:11.086Z,88.10
2019-03-03T02:41:39.527Z,87.60
2019-03-03T02:44:08.020Z,86.70
2019-03-03T02:46:36.461Z,86.10
2019-03-03T02:49:04.886Z,85.80
2019-03-03T02:51:33.398Z,86.20
2019-03-03T02:54:01.819Z,86.20
2019-03-03T02:56:30.257Z,86.40
2019-03-03T02:58:58.677Z,86.80
2019-03-03T03:01:29.016Z,86.90
2019-03-03T03:03:57.454Z,87.30
2019-03-03T03:06:43.899Z,87.30
2019-03-03T03:09:17.077Z,87.30
2019-03-03T03:11:56.365Z,87.30
2019-03-03T03:14:29.367Z,88.00
2019-03-03T03:16:59.758Z,87.50
2019-03-03T03:19:35.557Z,87.50
2019-03-03T03:22:05.662Z,87.50
2019-03-03T03:24:35.832Z,87.60
2019-03-03T03:27:08.758Z,87.50
2019-03-03T03:29:41.481Z,87.30
2019-03-03T03:32:11.567Z,87.30
2019-03-03T03:34:44.706Z,87.50
2019-03-03T03:37:14.862Z,87.00
2019-03-03T03:39:45.007Z,87.00
2019-03-03T03:42:18.069Z,87.10
2019-03-03T03:45:00.515Z,87.10
2019-03-03T03:47:36.280Z,87.10
2019-03-03T03:50:14.850Z,87.00
2019-03-03T03:53:03.441Z,87.00
2019-03-03T03:55:48.930Z,86.90
2019-03-03T03:58:27.795Z,86.90
2019-03-03T04:01:03.615Z,86.90
2019-03-03T04:03:36.657Z,86.90
2019-03-03T04:06:18.746Z,86.80
2019-03-03T04:08:55.132Z,86.90
2019-03-03T04:11:25.219Z,86.90
2019-03-03T04:14:04.186Z,86.80
2019-03-03T04:16:46.242Z,86.80
2019-03-03T04:19:16.341Z,86.70
2019-03-03T04:22:02.376Z,86.80
2019-03-03T04:24:44.288Z,86.90
2019-03-03T04:27:17.338Z,87.10
2019-03-03T04:29:53.285Z,87.50
2019-03-03T04:32:31.857Z,87.50
2019-03-03T04:35:07.661Z,87.40
2019-03-03T04:37:46.574Z,87.30
2019-03-03T04:40:31.805Z,87.60
2019-03-03T04:43:04.795Z,87.80
2019-03-03T04:45:34.869Z,88.10
2019-03-03T04:48:11.156Z,88.90
2019-03-03T04:50:58.061Z,88.20
2019-03-03T04:53:40.126Z,87.90
2019-03-03T04:56:16.080Z,87.80
2019-03-03T04:58:55.357Z,87.80
2019-03-03T05:01:25.428Z,87.80
2019-03-03T05:04:01.270Z,87.80
2019-03-03T05:06:37.128Z,87.90
2019-03-03T05:09:08.653Z,88.20
2019-03-03T05:12:04.531Z,88.40
2019-03-03T05:14:34.612Z,88.50
2019-03-03T05:17:04.685Z,88.40
2019-03-03T05:19:33.301Z,88.30
2019-03-03T05:22:01.737Z,88.30
2019-03-03T05:24:34.291Z,88.20
2019-03-03T05:27:00.334Z,88.20
2019-03-03T05:29:28.777Z,88.00
2019-03-03T05:31:57.247Z,88.00
2019-03-03T05:34:25.726Z,87.70
2019-03-03T05:36:54.157Z,87.80
2019-03-03T05:39:22.601Z,88.50
2019-03-03T05:41:51.038Z,87.80
2019-03-03T05:44:19.483Z,87.50
2019-03-03T05:46:48.512Z,87.20
2019-03-03T05:49:17.412Z,87.10
2019-03-03T05:51:45.845Z,87.20
2019-03-03T05:54:14.274Z,86.90
2019-03-03T05:56:42.726Z,87.00
2019-03-03T05:59:11.275Z,86.80
2019-03-03T06:01:39.713Z,86.80
2019-03-03T06:04:08.143Z,86.60
2019-03-03T06:06:36.606Z,86.60
2019-03-03T06:09:06.885Z,86.60
2019-03-03T06:11:35.692Z,86.60
2019-03-03T06:14:04.198Z,86.80
2019-03-03T06:16:32.641Z,86.30
2019-03-03T06:19:01.067Z,86.10
2019-03-03T06:21:29.519Z,86.10
2019-03-03T06:23:57.945Z,85.90
2019-03-03T06:26:26.392Z,86.00
2019-03-03T06:28:55.166Z,86.00
2019-03-03T06:31:23.681Z,85.80
2019-03-03T06:33:52.113Z,85.70
2019-03-03T06:36:20.557Z,85.40
2019-03-03T06:38:48.990Z,85.40
2019-03-03T06:41:17.433Z,85.00
2019-03-03T06:43:45.870Z,85.00
2019-03-03T06:46:14.315Z,84.80
2019-03-03T06:48:42.745Z,84.60
2019-03-03T06:51:11.197Z,84.60
2019-03-03T06:53:39.637Z,84.80
2019-03-03T06:56:08.147Z,84.80
2019-03-03T06:58:36.570Z,84.70
2019-03-03T07:01:05.022Z,84.70
2019-03-03T07:03:33.449Z,84.70
2019-03-03T07:06:01.898Z,84.60
2019-03-03T07:08:30.325Z,84.70
2019-03-03T07:10:58.770Z,84.90
2019-03-03T07:13:27.201Z,84.70
2019-03-03T07:15:55.644Z,84.60
2019-03-03T07:18:24.077Z,84.30
2019-03-03T07:20:52.520Z,84.30
2019-03-03T07:23:20.954Z,84.30
2019-03-03T07:25:49.477Z,84.00
2019-03-03T07:28:17.919Z,83.80
2019-03-03T07:30:46.361Z,83.80
2019-03-03T07:33:15.661Z,83.90
2019-03-03T07:35:44.109Z,84.60
2019-03-03T07:38:12.546Z,83.40
2019-03-03T07:40:40.987Z,83.40
2019-03-03T07:43:09.422Z,82.90
2019-03-03T07:45:37.910Z,82.20
2019-03-03T07:48:06.357Z,82.60
2019-03-03T07:50:34.797Z,82.60
2019-03-03T07:53:03.313Z,82.70
2019-03-03T07:55:31.773Z,82.70
2019-03-03T07:58:00.225Z,82.70
2019-03-03T08:00:28.657Z,82.60
2019-03-03T08:02:57.370Z,82.60
2019-03-03T08:05:25.799Z,83.00
2019-03-03T08:07:54.250Z,82.80
2019-03-03T08:10:22.678Z,82.80
2019-03-03T08:12:51.370Z,82.80
2019-03-03T08:15:19.873Z,82.50
2019-03-03T08:17:48.385Z,83.20
2019-03-03T08:20:16.809Z,81.80
2019-03-03T08:22:45.255Z,81.80
2019-03-03T08:25:14.053Z,82.30
2019-03-03T08:27:42.500Z,81.70
2019-03-03T08:30:20.397Z,81.20
2019-03-03T08:32:48.845Z,81.20
2019-03-03T08:35:23.030Z,81.10
2019-03-03T08:37:51.476Z,80.90
2019-03-03T08:40:20.162Z,80.70
2019-03-03T08:42:50.245Z,81.00
2019-03-03T08:45:37.001Z,81.50
2019-03-03T08:48:07.150Z,80.80
2019-03-03T08:50:37.226Z,80.40
2019-03-03T08:53:07.309Z,80.40
2019-03-03T08:55:42.818Z,80.30
2019-03-03T08:58:24.761Z,79.80
2019-03-03T09:01:00.608Z,79.90
2019-03-03T09:03:33.450Z,79.30
2019-03-03T09:06:03.541Z,78.60
2019-03-03T09:08:33.893Z,78.30
2019-03-03T09:11:03.961Z,77.90
2019-03-03T09:13:47.916Z,77.90
2019-03-03T09:16:25.405Z,77.10
2019-03-03T09:19:09.088Z,76.70
2019-03-03T09:21:55.727Z,76.40
2019-03-03T09:24:37.816Z,76.80
2019-03-03T09:27:07.954Z,76.60
2019-03-03T09:29:38.039Z,76.80
2019-03-03T09:32:16.996Z,75.70
2019-03-03T09:34:47.078Z,75.70
2019-03-03T09:37:17.214Z,75.90
2019-03-03T09:39:47.305Z,75.90
2019-03-03T09:42:33.500Z,75.40
2019-03-03T09:45:06.554Z,75.70
2019-03-03T09:47:39.604Z,75.40
2019-03-03T09:50:28.461Z,75.30
2019-03-03T09:52:58.541Z,75.20
2019-03-03T09:55:28.625Z,75.10
2019-03-03T09:58:01.398Z,75.10
2019-03-03T10:00:31.525Z,74.90
2019-03-03T10:03:01.597Z,75.30
2019-03-03T10:05:31.673Z,75.50
2019-03-03T10:08:13.321Z,75.60
2019-03-03T10:10:43.738Z,74.80
2019-03-03T10:13:35.077Z,74.10
2019-03-03T10:16:07.902Z,73.70
2019-03-03T10:19:07.213Z,73.80
2019-03-03T10:21:30.741Z,73.70
2019-03-03T10:24:01.146Z,71.90
2019-03-03T10:26:47.466Z,72.40
2019-03-03T10:29:17.574Z,71.70
2019-03-03T10:31:50.428Z,71.90
2019-03-03T10:34:23.434Z,71.00
2019-03-03T10:36:56.509Z,71.80
2019-03-03T10:39:26.576Z,71.40
2019-03-03T10:41:59.374Z,71.30
2019-03-03T10:44:29.757Z,70.20
2019-03-03T10:47:11.845Z,66.20
2019-03-03T10:49:47.921Z,68.70
2019-03-03T10:52:20.946Z,67.60
2019-03-03T10:54:56.894Z,67.30
2019-03-03T10:57:35.950Z,68.40
2019-03-03T11:00:09.113Z,65.90
2019-03-03T11:02:45.422Z,66.10
2019-03-03T11:05:18.797Z,65.80
2019-03-03T11:08:00.710Z,63.10
2019-03-03T11:10:33.836Z,65.80
2019-03-03T11:13:03.907Z,65.90
2019-03-03T11:15:49.351Z,62.60
2019-03-03T11:18:19.554Z,64.70
2019-03-03T11:20:58.689Z,62.00
2019-03-03T11:23:31.760Z,64.10
2019-03-03T11:26:18.121Z,64.30
2019-03-03T11:28:57.408Z,62.00
2019-03-03T11:31:30.461Z,62.80
2019-03-03T11:34:03.559Z,62.80
2019-03-03T11:36:33.906Z,63.50
2019-03-03T11:39:22.594Z,63.50
2019-03-03T11:42:01.993Z,62.30
2019-03-03T11:44:37.819Z,62.40
2019-03-03T11:47:13.829Z,61.50
2019-03-03T11:50:02.117Z,62.70
2019-03-03T11:52:32.213Z,63.80
2019-03-03T11:55:02.280Z,63.20
2019-03-03T11:57:49.068Z,63.40
2019-03-03T12:00:37.875Z,64.00
2019-03-03T12:03:16.790Z,63.90
2019-03-03T12:05:49.373Z,59.40
2019-03-03T12:08:21.938Z,60.10
2019-03-03T12:11:08.194Z,59.60
2019-03-03T12:13:47.286Z,61.80
2019-03-03T12:16:23.335Z,63.10
2019-03-03T12:19:02.629Z,61.60
2019-03-03T12:21:32.693Z,59.30
2019-03-03T12:24:11.495Z,61.60
2019-03-03T12:26:57.996Z,59.80
2019-03-03T12:29:30.497Z,60.00
2019-03-03T12:32:06.604Z,60.50
2019-03-03T12:34:39.646Z,60.20
2019-03-03T12:37:24.748Z,60.90
2019-03-03T12:39:54.826Z,60.00
2019-03-03T12:42:40.918Z,57.70
2019-03-03T12:45:11.094Z,59.10
2019-03-03T12:47:50.121Z,59.90
2019-03-03T12:50:23.153Z,59.50
2019-03-03T12:53:05.506Z,59.30
2019-03-03T12:55:51.506Z,57.00
2019-03-03T12:58:21.587Z,56.70
2019-03-03T13:00:51.720Z,56.60
2019-03-03T13:17:37.623Z,55.50
2019-03-03T13:20:19.525Z,55.50
2019-03-03T13:22:49.676Z,54.80
2019-03-03T13:25:36.265Z,55.90
2019-03-03T13:28:12.143Z,56.40
2019-03-03T13:30:42.386Z,56.00
2019-03-03T13:33:18.180Z,56.30
2019-03-03T13:36:04.501Z,55.40
2019-03-03T13:38:34.569Z,55.20
2019-03-03T13:41:04.641Z,54.90
2019-03-03T13:43:34.376Z,55.20
2019-03-03T13:46:03.049Z,53.30
2019-03-03T13:48:31.477Z,51.60
2019-03-03T13:50:59.913Z,51.80
2019-03-03T13:53:28.353Z,53.40
2019-03-03T13:55:56.848Z,52.30
2019-03-03T13:58:25.284Z,51.90
2019-03-03T14:00:53.716Z,54.00
2019-03-03T14:03:22.509Z,52.90
2019-03-03T14:05:51.032Z,52.00
2019-03-03T14:15:06.683Z,50.80
2019-03-03T14:17:35.141Z,51.00
2019-03-03T14:20:04.918Z,53.30
2019-03-03T14:22:33.354Z,52.50
2019-03-03T14:25:02.086Z,50.60
2019-03-03T14:27:30.517Z,51.80
2019-03-03T14:29:59.237Z,52.30
2019-03-03T14:32:27.668Z,51.10
2019-03-03T14:34:56.167Z,48.50
2019-03-03T14:37:24.982Z,49.70
2019-03-03T14:39:53.426Z,49.80
2019-03-03T14:42:21.864Z,49.30
2019-03-03T14:44:50.296Z,50.30
2019-03-03T14:47:18.801Z,50.50
2019-03-03T14:49:47.288Z,50.50
2019-03-03T14:52:15.981Z,51.20
2019-03-03T14:54:44.426Z,50.70
2019-03-03T14:57:12.858Z,52.00
2019-03-03T14:59:41.630Z,51.00
2019-03-03T15:02:10.130Z,49.80
2019-03-03T15:04:38.569Z,49.60
2019-03-03T15:07:07.001Z,50.20
2019-03-03T15:09:35.513Z,51.40
2019-03-03T15:12:04.011Z,50.30
2019-03-03T15:14:32.445Z,50.90
2019-03-03T15:17:00.967Z,50.30
2019-03-03T15:19:29.451Z,50.20
2019-03-03T15:21:57.967Z,51.30
2019-03-03T15:24:26.501Z,51.30
2019-03-03T15:26:55.256Z,52.20
2019-03-03T15:29:25.393Z,53.10
2019-03-03T15:31:53.890Z,52.00
2019-03-03T15:37:51.309Z,52.90
2019-03-03T15:40:25.133Z,53.20
2019-03-03T15:42:54.024Z,53.50
2019-03-03T15:45:24.957Z,53.40
2019-03-03T15:47:53.405Z,53.80
2019-03-03T15:50:22.380Z,54.10
2019-03-03T15:52:50.968Z,54.10
2019-03-03T15:55:25.259Z,54.50
2019-03-03T15:57:54.018Z,54.90
2019-03-03T16:00:33.377Z,55.00
2019-03-03T16:03:01.829Z,54.90
2019-03-03T16:05:30.380Z,55.20
2019-03-03T16:07:59.111Z,55.10
2019-03-03T16:10:27.983Z,55.20
2019-03-03T16:12:56.504Z,55.20
2019-03-03T16:15:25.276Z,55.50
2019-03-03T16:17:54.066Z,56.60
2019-03-03T16:20:23.894Z,56.60
2019-03-03T16:22:52.346Z,58.90
2019-03-03T16:25:22.211Z,58.00
2019-03-03T16:27:50.673Z,58.20
2019-03-03T16:30:20.638Z,58.20
2019-03-03T16:32:49.462Z,58.30
2019-03-03T16:35:18.297Z,58.20
2019-03-03T16:37:46.737Z,58.60
2019-03-03T16:40:20.798Z,58.80
2019-03-03T16:42:49.815Z,58.60
2019-03-03T16:45:18.321Z,58.80
2019-03-03T16:47:46.871Z,59.10
2019-03-03T16:50:17.918Z,59.40
2019-03-03T16:52:46.601Z,60.30
2019-03-03T16:55:16.642Z,60.10
2019-03-03T16:57:45.169Z,60.20
2019-03-03T17:00:25.085Z,60.50
2019-03-03T17:02:53.551Z,60.70
2019-03-03T17:05:24.791Z,60.90
2019-03-03T17:07:53.251Z,61.20
2019-03-03T17:10:21.690Z,61.80
2019-03-03T17:12:50.476Z,62.60
2019-03-03T17:15:27.011Z,63.00
2019-03-03T17:17:55.452Z,63.10
2019-03-03T17:20:24.197Z,63.30
2019-03-03T17:22:52.642Z,63.20
2019-03-03T17:25:28.941Z,63.10
2019-03-03T17:27:57.387Z,63.50
2019-03-03T17:30:27.211Z,63.40
2019-03-03T17:32:55.653Z,64.70
2019-03-03T17:35:24.089Z,64.60
2019-03-03T17:37:52.887Z,64.50
2019-03-03T17:40:26.436Z,64.50
2019-03-03T17:42:55.199Z,64.90
2019-03-03T17:45:25.346Z,64.90
2019-03-03T17:47:53.849Z,65.80
2019-03-03T17:50:24.914Z,66.30
2019-03-03T17:52:53.353Z,66.10
2019-03-03T17:55:21.883Z,66.20
2019-03-03T17:57:50.344Z,66.90
2019-03-03T18:00:26.268Z,67.20
2019-03-03T18:02:55.334Z,67.60
2019-03-03T18:05:23.963Z,67.60
2019-03-03T18:07:52.486Z,67.70
2019-03-03T18:10:21.052Z,68.30
2019-03-03T18:12:49.719Z,68.20
2019-03-03T18:15:18.848Z,68.40
2019-03-03T18:17:47.465Z,68.80
2019-03-03T18:20:19.149Z,68.90
2019-03-03T18:22:47.132Z,68.90
2019-03-03T18:25:17.653Z,71.50
2019-03-03T18:27:46.382Z,70.20
2019-03-03T18:30:25.138Z,70.30
2019-03-03T18:32:53.640Z,70.70
2019-03-03T18:35:22.595Z,70.50
2019-03-03T18:37:51.104Z,70.70
2019-03-03T18:40:23.861Z,70.80
2019-03-03T18:42:52.723Z,71.30
2019-03-03T18:45:24.583Z,71.50
2019-03-03T18:47:53.218Z,71.80
2019-03-03T18:50:29.221Z,71.90
2019-03-03T18:52:59.845Z,72.30
2019-03-03T18:55:27.942Z,72.60
2019-03-03T18:57:56.374Z,73.10
2019-03-03T19:00:28.210Z,72.40
2019-03-03T19:02:58.161Z,72.40
2019-03-03T19:05:27.303Z,72.60
2019-03-03T19:07:55.795Z,73.10
2019-03-03T19:10:29.656Z,74.00
2019-03-03T19:12:58.091Z,73.80
2019-03-03T19:15:26.521Z,74.90
2019-03-03T19:17:55.020Z,74.60
2019-03-03T19:20:23.529Z,74.60
2019-03-03T19:22:52.283Z,74.50
2019-03-03T19:25:20.867Z,74.10
2019-03-03T19:27:49.366Z,74.60
2019-03-03T19:30:28.465Z,74.40
2019-03-03T19:33:02.541Z,73.80
2019-03-03T19:35:31.402Z,73.40
2019-03-03T19:37:59.832Z,73.00
2019-03-03T19:40:28.364Z,72.90
2019-03-03T19:42:56.871Z,72.70
2019-03-03T19:45:34.853Z,72.30
2019-03-03T19:48:03.452Z,72.30
2019-03-03T19:50:32.418Z,72.30
2019-03-03T19:53:00.959Z,72.30
2019-03-03T19:55:29.927Z,72.00
2019-03-03T19:57:58.439Z,71.80
2019-03-03T20:00:39.185Z,71.80
2019-03-03T20:03:08.118Z,71.60
2019-03-03T20:05:36.640Z,71.60
2019-03-03T20:08:06.124Z,71.80
2019-03-03T20:10:35.117Z,71.50
2019-03-03T20:13:03.981Z,71.50
2019-03-03T20:15:33.114Z,71.50
2019-03-03T20:18:02.770Z,71.40
2019-03-03T20:20:31.615Z,70.60
2019-03-03T20:23:00.058Z,70.90
2019-03-03T20:25:28.567Z,71.90
2019-03-03T20:27:57.099Z,72.30
2019-03-03T20:30:26.101Z,72.30
2019-03-03T20:32:54.629Z,72.50
2019-03-03T20:35:23.133Z,72.90
2019-03-03T20:37:52.024Z,72.80
2019-03-03T20:40:25.483Z,72.70
2019-03-03T20:42:55.821Z,72.80
2019-03-03T20:45:32.266Z,72.40
2019-03-03T20:48:00.695Z,72.30
2019-03-03T20:50:29.239Z,72.40
2019-03-03T20:52:58.078Z,72.10
2019-03-03T20:55:31.070Z,72.00
2019-03-03T20:57:59.586Z,72.10
2019-03-03T21:00:33.244Z,72.10
2019-03-03T21:03:01.746Z,72.20
2019-03-03T21:05:30.498Z,72.90
2019-03-03T21:07:58.949Z,72.20
2019-03-03T21:10:31.422Z,72.30
2019-03-03T21:13:00.081Z,72.00
2019-03-03T21:15:28.967Z,71.90
2019-03-03T21:17:57.665Z,71.90
2019-03-03T21:20:26.955Z,72.20
2019-03-03T21:22:55.765Z,72.10
2019-03-03T21:25:24.594Z,72.40
2019-03-03T21:27:53.039Z,72.80
2019-03-03T21:30:26.618Z,73.60
2019-03-03T21:32:55.244Z,73.60
2019-03-03T21:35:23.753Z,74.00
2019-03-03T21:37:52.584Z,74.60
2019-03-03T21:40:27.083Z,74.30
2019-03-03T21:42:55.965Z,73.90
2019-03-03T21:45:31.167Z,73.80
2019-03-03T21:47:59.638Z,73.90
2019-03-03T21:50:29.715Z,74.00
2019-03-03T21:52:58.289Z,74.00
2019-03-03T21:55:26.718Z,74.70
2019-03-03T21:57:55.163Z,75.30
2019-03-03T22:00:32.870Z,75.40
2019-03-03T22:03:01.566Z,75.80
2019-03-03T22:05:30.199Z,76.30
2019-03-03T22:07:58.996Z,76.40
2019-03-03T22:10:30.494Z,76.40
2019-03-03T22:13:02.487Z,76.20
2019-03-03T22:15:31.326Z,77.80
2019-03-03T22:17:59.829Z,76.50
2019-03-03T22:20:28.570Z,75.40
2019-03-03T22:22:57.091Z,76.40
2019-03-03T22:25:25.510Z,76.70
2019-03-03T22:27:53.991Z,76.60
2019-03-03T22:30:22.905Z,77.20
2019-03-03T22:32:51.357Z,77.20
2019-03-03T22:35:19.803Z,76.90
2019-03-03T22:37:48.246Z,77.20
2019-03-03T22:40:21.407Z,77.20
2019-03-03T22:42:49.857Z,77.50
2019-03-03T22:45:18.840Z,76.60
2019-03-03T22:47:47.409Z,76.70
2019-03-03T22:50:18.150Z,76.70
2019-03-03T22:52:46.650Z,76.30
2019-03-03T22:55:17.382Z,76.40
2019-03-03T22:57:46.152Z,76.20
2019-03-03T23:00:28.650Z,76.70
2019-03-03T23:02:57.080Z,76.80
2019-03-03T23:05:37.743Z,76.80
2019-03-03T23:08:09.559Z,76.60
2019-03-03T23:10:44.187Z,76.50
2019-03-03T23:13:18.449Z,77.10
2019-03-03T23:16:01.838Z,76.70
2019-03-03T23:18:48.241Z,76.30
2019-03-03T23:21:34.653Z,76.10
2019-03-03T23:24:11.881Z,75.50
2019-03-03T23:26:40.382Z,75.70
2019-03-03T23:29:08.839Z,75.90
2019-03-03T23:31:37.580Z,76.50
2019-03-03T23:34:05.998Z,75.60
2019-03-03T23:36:34.450Z,75.80
2019-03-03T23:39:03.331Z,75.80
2019-03-03T23:41:31.768Z,75.90
2019-03-03T23:44:00.210Z,76.10
2019-03-03T23:46:28.638Z,75.60
2019-03-03T23:48:57.062Z,75.10
2019-03-03T23:51:25.654Z,75.70
2019-03-03T23:53:54.107Z,74.80
2019-03-03T23:56:22.902Z,74.80
2019-03-03T23:58:51.591Z,75.00
